sensor_id;sensor_type;location;lat;lon;timestamp;P1;durP1;ratioP1;P2;durP2;ratioP2
46563;SDS011;32291;52.010;4.446;2022-09-09T00:00:23;10.25;;;5.43;;
46563;SDS011;32291;52.010;4.446;2022-09-09T00:01:30;7.10;;;5.28;;
46563;SDS011;32291;52.010;4.446;2022-09-09T00:03:17;9.82;;;5.38;;
46563;SDS011;32291;52.010;4.446;2022-09-09T00:04:32;10.57;;;6.07;;
46563;SDS011;32291;52.010;4.446;2022-09-09T00:06:08;7.32;;;5.25;;
46563;SDS011;32291;52.010;4.446;2022-09-09T00:10:33;6.78;;;5.40;;
46563;SDS011;32291;52.010;4.446;2022-09-09T00:11:47;6.35;;;5.05;;
46563;SDS011;32291;52.010;4.446;2022-09-09T00:13:19;7.45;;;5.45;;
46563;SDS011;32291;52.010;4.446;2022-09-09T00:14:55;7.57;;;6.07;;
46563;SDS011;32291;52.010;4.446;2022-09-09T00:22:40;9.25;;;5.93;;
46563;SDS011;32291;52.010;4.446;2022-09-09T00:24:23;7.05;;;5.10;;
46563;SDS011;32291;52.010;4.446;2022-09-09T00:27:39;9.77;;;6.43;;
46563;SDS011;32291;52.010;4.446;2022-09-09T00:28:55;7.80;;;5.80;;
46563;SDS011;32291;52.010;4.446;2022-09-09T00:30:31;6.50;;;5.80;;
46563;SDS011;32291;52.010;4.446;2022-09-09T00:31:44;8.10;;;5.43;;
46563;SDS011;32291;52.010;4.446;2022-09-09T00:32:48;6.78;;;5.70;;
46563;SDS011;32291;52.010;4.446;2022-09-09T00:36:46;7.22;;;6.53;;
46563;SDS011;32291;52.010;4.446;2022-09-09T00:37:56;7.65;;;5.93;;
46563;SDS011;32291;52.010;4.446;2022-09-09T00:39:45;7.30;;;5.63;;
46563;SDS011;32291;52.010;4.446;2022-09-09T00:42:20;8.52;;;6.80;;
46563;SDS011;32291;52.010;4.446;2022-09-09T00:43:57;10.25;;;6.22;;
46563;SDS011;32291;52.010;4.446;2022-09-09T00:48:08;11.45;;;6.80;;
46563;SDS011;32291;52.010;4.446;2022-09-09T00:51:09;8.73;;;6.70;;
46563;SDS011;32291;52.010;4.446;2022-09-09T00:52:57;9.55;;;7.53;;
46563;SDS011;32291;52.010;4.446;2022-09-09T00:57:32;7.97;;;7.10;;
46563;SDS011;32291;52.010;4.446;2022-09-09T00:58:47;8.07;;;7.00;;
46563;SDS011;32291;52.010;4.446;2022-09-09T01:00:27;17.38;;;8.20;;
46563;SDS011;32291;52.010;4.446;2022-09-09T01:01:45;10.50;;;7.50;;
46563;SDS011;32291;52.010;4.446;2022-09-09T01:03:37;14.05;;;7.82;;
46563;SDS011;32291;52.010;4.446;2022-09-09T01:04:57;10.57;;;8.30;;
46563;SDS011;32291;52.010;4.446;2022-09-09T01:06:40;11.77;;;8.05;;
46563;SDS011;32291;52.010;4.446;2022-09-09T01:07:47;8.30;;;7.50;;
46563;SDS011;32291;52.010;4.446;2022-09-09T01:09:10;10.95;;;7.45;;
46563;SDS011;32291;52.010;4.446;2022-09-09T01:10:43;9.30;;;7.82;;
46563;SDS011;32291;52.010;4.446;2022-09-09T01:12:02;9.95;;;7.18;;
46563;SDS011;32291;52.010;4.446;2022-09-09T01:13:28;9.50;;;7.75;;
46563;SDS011;32291;52.010;4.446;2022-09-09T01:14:39;11.30;;;8.00;;
46563;SDS011;32291;52.010;4.446;2022-09-09T01:15:59;8.93;;;7.28;;
46563;SDS011;32291;52.010;4.446;2022-09-09T01:17:17;9.82;;;7.25;;
46563;SDS011;32291;52.010;4.446;2022-09-09T01:18:39;10.48;;;7.13;;
46563;SDS011;32291;52.010;4.446;2022-09-09T01:21:35;7.88;;;6.90;;
46563;SDS011;32291;52.010;4.446;2022-09-09T01:27:02;7.43;;;5.93;;
46563;SDS011;32291;52.010;4.446;2022-09-09T01:28:17;11.82;;;6.25;;
46563;SDS011;32291;52.010;4.446;2022-09-09T01:29:28;6.10;;;5.50;;
46563;SDS011;32291;52.010;4.446;2022-09-09T01:30:31;7.95;;;5.18;;
46563;SDS011;32291;52.010;4.446;2022-09-09T01:31:51;7.95;;;4.63;;
46563;SDS011;32291;52.010;4.446;2022-09-09T01:34:01;7.65;;;4.70;;
46563;SDS011;32291;52.010;4.446;2022-09-09T01:35:19;5.82;;;3.92;;
46563;SDS011;32291;52.010;4.446;2022-09-09T01:37:13;6.45;;;3.55;;
46563;SDS011;32291;52.010;4.446;2022-09-09T01:38:16;7.15;;;3.35;;
46563;SDS011;32291;52.010;4.446;2022-09-09T01:39:24;4.55;;;3.20;;
46563;SDS011;32291;52.010;4.446;2022-09-09T01:40:28;8.27;;;3.50;;
46563;SDS011;32291;52.010;4.446;2022-09-09T01:41:32;3.33;;;2.95;;
46563;SDS011;32291;52.010;4.446;2022-09-09T01:42:34;6.95;;;3.20;;
46563;SDS011;32291;52.010;4.446;2022-09-09T01:43:37;6.07;;;3.20;;
46563;SDS011;32291;52.010;4.446;2022-09-09T01:44:44;6.80;;;3.40;;
46563;SDS011;32291;52.010;4.446;2022-09-09T01:45:47;7.28;;;3.22;;
46563;SDS011;32291;52.010;4.446;2022-09-09T01:46:56;5.25;;;2.88;;
46563;SDS011;32291;52.010;4.446;2022-09-09T01:48:00;8.15;;;3.20;;
46563;SDS011;32291;52.010;4.446;2022-09-09T01:49:05;4.00;;;2.78;;
46563;SDS011;32291;52.010;4.446;2022-09-09T01:50:13;9.10;;;3.28;;
46563;SDS011;32291;52.010;4.446;2022-09-09T01:51:19;4.53;;;2.60;;
46563;SDS011;32291;52.010;4.446;2022-09-09T01:52:23;4.65;;;2.83;;
46563;SDS011;32291;52.010;4.446;2022-09-09T01:53:26;4.40;;;2.90;;
46563;SDS011;32291;52.010;4.446;2022-09-09T01:54:32;3.75;;;2.50;;
46563;SDS011;32291;52.010;4.446;2022-09-09T01:55:40;4.22;;;2.20;;
46563;SDS011;32291;52.010;4.446;2022-09-09T01:57:18;6.22;;;2.28;;
46563;SDS011;32291;52.010;4.446;2022-09-09T02:04:35;7.43;;;3.03;;
46563;SDS011;32291;52.010;4.446;2022-09-09T02:07:42;5.70;;;2.00;;
46563;SDS011;32291;52.010;4.446;2022-09-09T02:09:06;7.45;;;2.80;;
46563;SDS011;32291;52.010;4.446;2022-09-09T02:10:31;4.50;;;2.70;;
46563;SDS011;32291;52.010;4.446;2022-09-09T02:11:47;5.25;;;3.25;;
46563;SDS011;32291;52.010;4.446;2022-09-09T02:13:09;4.70;;;3.42;;
46563;SDS011;32291;52.010;4.446;2022-09-09T02:14:23;5.20;;;2.58;;
46563;SDS011;32291;52.010;4.446;2022-09-09T02:15:58;7.88;;;3.15;;
46563;SDS011;32291;52.010;4.446;2022-09-09T02:17:32;6.45;;;2.88;;
46563;SDS011;32291;52.010;4.446;2022-09-09T02:18:54;4.50;;;2.80;;
46563;SDS011;32291;52.010;4.446;2022-09-09T02:20:28;6.38;;;2.95;;
46563;SDS011;32291;52.010;4.446;2022-09-09T02:21:36;6.70;;;3.42;;
46563;SDS011;32291;52.010;4.446;2022-09-09T02:22:43;5.82;;;2.92;;
46563;SDS011;32291;52.010;4.446;2022-09-09T02:23:52;4.40;;;3.10;;
46563;SDS011;32291;52.010;4.446;2022-09-09T02:24:59;5.03;;;2.45;;
46563;SDS011;32291;52.010;4.446;2022-09-09T02:26:07;5.40;;;2.90;;
46563;SDS011;32291;52.010;4.446;2022-09-09T02:27:17;6.57;;;3.00;;
46563;SDS011;32291;52.010;4.446;2022-09-09T02:28:24;6.10;;;2.92;;
46563;SDS011;32291;52.010;4.446;2022-09-09T02:29:39;5.97;;;3.03;;
46563;SDS011;32291;52.010;4.446;2022-09-09T02:30:47;5.40;;;2.70;;
46563;SDS011;32291;52.010;4.446;2022-09-09T02:31:56;6.18;;;2.53;;
46563;SDS011;32291;52.010;4.446;2022-09-09T02:33:09;4.82;;;2.47;;
46563;SDS011;32291;52.010;4.446;2022-09-09T02:34:20;3.83;;;2.13;;
46563;SDS011;32291;52.010;4.446;2022-09-09T02:35:26;5.18;;;2.50;;
46563;SDS011;32291;52.010;4.446;2022-09-09T02:36:34;4.60;;;2.22;;
46563;SDS011;32291;52.010;4.446;2022-09-09T02:37:41;5.53;;;2.90;;
46563;SDS011;32291;52.010;4.446;2022-09-09T02:38:50;5.03;;;2.53;;
46563;SDS011;32291;52.010;4.446;2022-09-09T02:39:55;4.25;;;2.40;;
46563;SDS011;32291;52.010;4.446;2022-09-09T02:41:00;4.78;;;2.47;;
46563;SDS011;32291;52.010;4.446;2022-09-09T02:42:04;5.55;;;2.10;;
46563;SDS011;32291;52.010;4.446;2022-09-09T02:43:13;3.85;;;2.45;;
46563;SDS011;32291;52.010;4.446;2022-09-09T02:44:20;8.45;;;3.00;;
46563;SDS011;32291;52.010;4.446;2022-09-09T02:45:24;5.75;;;2.85;;
46563;SDS011;32291;52.010;4.446;2022-09-09T02:47:29;5.03;;;2.53;;
46563;SDS011;32291;52.010;4.446;2022-09-09T02:49:06;5.05;;;2.13;;
46563;SDS011;32291;52.010;4.446;2022-09-09T02:50:52;5.32;;;2.92;;
46563;SDS011;32291;52.010;4.446;2022-09-09T02:52:17;5.32;;;2.40;;
46563;SDS011;32291;52.010;4.446;2022-09-09T02:55:41;7.10;;;3.13;;
46563;SDS011;32291;52.010;4.446;2022-09-09T02:56:53;5.25;;;3.38;;
46563;SDS011;32291;52.010;4.446;2022-09-09T02:58:07;5.32;;;3.15;;
46563;SDS011;32291;52.010;4.446;2022-09-09T02:59:17;4.40;;;2.85;;
46563;SDS011;32291;52.010;4.446;2022-09-09T03:00:26;6.68;;;3.20;;
46563;SDS011;32291;52.010;4.446;2022-09-09T03:01:40;7.07;;;3.47;;
46563;SDS011;32291;52.010;4.446;2022-09-09T03:02:46;8.13;;;3.47;;
46563;SDS011;32291;52.010;4.446;2022-09-09T03:03:49;6.63;;;3.05;;
46563;SDS011;32291;52.010;4.446;2022-09-09T03:04:59;6.57;;;3.03;;
46563;SDS011;32291;52.010;4.446;2022-09-09T03:06:04;5.72;;;3.00;;
46563;SDS011;32291;52.010;4.446;2022-09-09T03:07:08;5.70;;;2.78;;
46563;SDS011;32291;52.010;4.446;2022-09-09T03:08:13;5.03;;;3.30;;
46563;SDS011;32291;52.010;4.446;2022-09-09T03:09:18;4.93;;;2.47;;
46563;SDS011;32291;52.010;4.446;2022-09-09T03:10:21;6.22;;;3.13;;
46563;SDS011;32291;52.010;4.446;2022-09-09T03:11:34;5.68;;;2.97;;
46563;SDS011;32291;52.010;4.446;2022-09-09T03:12:42;4.13;;;2.42;;
46563;SDS011;32291;52.010;4.446;2022-09-09T03:13:50;8.20;;;2.75;;
46563;SDS011;32291;52.010;4.446;2022-09-09T03:14:53;3.75;;;2.80;;
46563;SDS011;32291;52.010;4.446;2022-09-09T03:16:03;8.02;;;2.97;;
46563;SDS011;32291;52.010;4.446;2022-09-09T03:17:09;7.57;;;2.90;;
46563;SDS011;32291;52.010;4.446;2022-09-09T03:18:13;4.88;;;2.60;;
46563;SDS011;32291;52.010;4.446;2022-09-09T03:19:16;7.10;;;3.00;;
46563;SDS011;32291;52.010;4.446;2022-09-09T03:20:19;5.97;;;2.50;;
46563;SDS011;32291;52.010;4.446;2022-09-09T03:21:22;4.30;;;2.80;;
46563;SDS011;32291;52.010;4.446;2022-09-09T03:22:28;8.07;;;3.13;;
46563;SDS011;32291;52.010;4.446;2022-09-09T03:23:32;4.95;;;2.88;;
46563;SDS011;32291;52.010;4.446;2022-09-09T03:24:35;7.05;;;3.03;;
46563;SDS011;32291;52.010;4.446;2022-09-09T03:25:51;6.57;;;3.05;;
46563;SDS011;32291;52.010;4.446;2022-09-09T03:27:04;5.38;;;2.83;;
46563;SDS011;32291;52.010;4.446;2022-09-09T03:28:10;5.30;;;2.97;;
46563;SDS011;32291;52.010;4.446;2022-09-09T03:29:18;7.30;;;2.92;;
46563;SDS011;32291;52.010;4.446;2022-09-09T03:30:26;5.60;;;2.40;;
46563;SDS011;32291;52.010;4.446;2022-09-09T03:31:35;6.38;;;2.80;;
46563;SDS011;32291;52.010;4.446;2022-09-09T03:32:42;4.32;;;2.60;;
46563;SDS011;32291;52.010;4.446;2022-09-09T03:33:48;6.43;;;2.80;;
46563;SDS011;32291;52.010;4.446;2022-09-09T03:34:59;6.50;;;2.10;;
46563;SDS011;32291;52.010;4.446;2022-09-09T03:36:03;6.63;;;2.60;;
46563;SDS011;32291;52.010;4.446;2022-09-09T03:37:07;5.65;;;2.95;;
46563;SDS011;32291;52.010;4.446;2022-09-09T03:38:13;3.95;;;2.30;;
46563;SDS011;32291;52.010;4.446;2022-09-09T03:39:22;4.15;;;2.25;;
46563;SDS011;32291;52.010;4.446;2022-09-09T03:40:30;3.25;;;1.98;;
46563;SDS011;32291;52.010;4.446;2022-09-09T03:41:36;3.90;;;2.42;;
46563;SDS011;32291;52.010;4.446;2022-09-09T03:42:42;7.90;;;2.72;;
46563;SDS011;32291;52.010;4.446;2022-09-09T03:43:45;4.63;;;2.05;;
46563;SDS011;32291;52.010;4.446;2022-09-09T03:44:55;3.75;;;2.20;;
46563;SDS011;32291;52.010;4.446;2022-09-09T03:45:59;5.25;;;2.17;;
46563;SDS011;32291;52.010;4.446;2022-09-09T03:47:03;6.07;;;2.25;;
46563;SDS011;32291;52.010;4.446;2022-09-09T03:48:15;5.82;;;2.10;;
46563;SDS011;32291;52.010;4.446;2022-09-09T03:49:22;5.15;;;2.20;;
46563;SDS011;32291;52.010;4.446;2022-09-09T03:50:30;3.75;;;2.13;;
46563;SDS011;32291;52.010;4.446;2022-09-09T03:51:33;3.03;;;2.03;;
46563;SDS011;32291;52.010;4.446;2022-09-09T03:52:39;5.65;;;2.10;;
46563;SDS011;32291;52.010;4.446;2022-09-09T03:53:47;7.18;;;2.20;;
46563;SDS011;32291;52.010;4.446;2022-09-09T03:54:50;8.60;;;2.65;;
46563;SDS011;32291;52.010;4.446;2022-09-09T03:55:54;6.22;;;2.40;;
46563;SDS011;32291;52.010;4.446;2022-09-09T03:57:01;3.90;;;2.05;;
46563;SDS011;32291;52.010;4.446;2022-09-09T03:58:21;6.13;;;2.35;;
46563;SDS011;32291;52.010;4.446;2022-09-09T03:59:28;5.35;;;2.10;;
46563;SDS011;32291;52.010;4.446;2022-09-09T04:00:31;5.13;;;2.40;;
46563;SDS011;32291;52.010;4.446;2022-09-09T04:01:36;4.72;;;2.35;;
46563;SDS011;32291;52.010;4.446;2022-09-09T04:02:40;6.10;;;2.10;;
46563;SDS011;32291;52.010;4.446;2022-09-09T04:03:47;3.28;;;1.98;;
46563;SDS011;32291;52.010;4.446;2022-09-09T04:04:52;8.02;;;2.15;;
46563;SDS011;32291;52.010;4.446;2022-09-09T04:05:56;5.60;;;2.40;;
46563;SDS011;32291;52.010;4.446;2022-09-09T04:07:01;5.90;;;1.95;;
46563;SDS011;32291;52.010;4.446;2022-09-09T04:08:13;6.15;;;2.97;;
46563;SDS011;32291;52.010;4.446;2022-09-09T04:09:22;4.45;;;2.20;;
46563;SDS011;32291;52.010;4.446;2022-09-09T04:10:25;3.53;;;2.10;;
46563;SDS011;32291;52.010;4.446;2022-09-09T04:11:29;5.65;;;2.28;;
46563;SDS011;32291;52.010;4.446;2022-09-09T04:12:32;5.40;;;2.33;;
46563;SDS011;32291;52.010;4.446;2022-09-09T04:13:36;4.75;;;2.10;;
46563;SDS011;32291;52.010;4.446;2022-09-09T04:14:42;4.38;;;1.98;;
46563;SDS011;32291;52.010;4.446;2022-09-09T04:15:54;4.93;;;1.73;;
46563;SDS011;32291;52.010;4.446;2022-09-09T04:17:02;4.22;;;2.42;;
46563;SDS011;32291;52.010;4.446;2022-09-09T04:18:09;3.60;;;1.70;;
46563;SDS011;32291;52.010;4.446;2022-09-09T04:19:15;6.30;;;2.05;;
46563;SDS011;32291;52.010;4.446;2022-09-09T04:20:22;4.45;;;2.20;;
46563;SDS011;32291;52.010;4.446;2022-09-09T04:21:28;4.72;;;2.78;;
46563;SDS011;32291;52.010;4.446;2022-09-09T04:22:32;4.97;;;2.17;;
46563;SDS011;32291;52.010;4.446;2022-09-09T04:23:35;4.05;;;2.60;;
46563;SDS011;32291;52.010;4.446;2022-09-09T04:24:44;4.97;;;2.20;;
46563;SDS011;32291;52.010;4.446;2022-09-09T04:26:00;3.45;;;2.20;;
46563;SDS011;32291;52.010;4.446;2022-09-09T04:27:10;3.67;;;2.30;;
46563;SDS011;32291;52.010;4.446;2022-09-09T04:28:20;4.30;;;2.15;;
46563;SDS011;32291;52.010;4.446;2022-09-09T04:29:26;6.15;;;2.78;;
46563;SDS011;32291;52.010;4.446;2022-09-09T04:30:32;7.93;;;2.60;;
46563;SDS011;32291;52.010;4.446;2022-09-09T04:31:48;5.20;;;2.55;;
46563;SDS011;32291;52.010;4.446;2022-09-09T04:32:54;6.10;;;3.13;;
46563;SDS011;32291;52.010;4.446;2022-09-09T04:34:01;5.57;;;2.65;;
46563;SDS011;32291;52.010;4.446;2022-09-09T04:35:06;4.93;;;3.00;;
46563;SDS011;32291;52.010;4.446;2022-09-09T04:36:13;9.15;;;3.05;;
46563;SDS011;32291;52.010;4.446;2022-09-09T04:37:17;5.40;;;2.83;;
46563;SDS011;32291;52.010;4.446;2022-09-09T04:38:30;5.57;;;3.10;;
46563;SDS011;32291;52.010;4.446;2022-09-09T04:39:49;6.35;;;4.07;;
46563;SDS011;32291;52.010;4.446;2022-09-09T04:40:53;3.83;;;3.40;;
46563;SDS011;32291;52.010;4.446;2022-09-09T04:41:58;6.93;;;3.38;;
46563;SDS011;32291;52.010;4.446;2022-09-09T04:43:02;6.07;;;3.00;;
46563;SDS011;32291;52.010;4.446;2022-09-09T04:44:06;7.28;;;3.97;;
46563;SDS011;32291;52.010;4.446;2022-09-09T04:45:10;5.28;;;3.20;;
46563;SDS011;32291;52.010;4.446;2022-09-09T04:46:12;8.18;;;3.67;;
46563;SDS011;32291;52.010;4.446;2022-09-09T04:47:15;8.68;;;3.28;;
46563;SDS011;32291;52.010;4.446;2022-09-09T04:48:18;8.00;;;3.67;;
46563;SDS011;32291;52.010;4.446;2022-09-09T04:49:22;5.38;;;2.95;;
46563;SDS011;32291;52.010;4.446;2022-09-09T04:50:25;6.82;;;3.53;;
46563;SDS011;32291;52.010;4.446;2022-09-09T04:51:32;6.35;;;2.75;;
46563;SDS011;32291;52.010;4.446;2022-09-09T04:52:40;7.43;;;3.17;;
46563;SDS011;32291;52.010;4.446;2022-09-09T04:53:44;7.55;;;3.15;;
46563;SDS011;32291;52.010;4.446;2022-09-09T04:54:48;5.70;;;2.92;;
46563;SDS011;32291;52.010;4.446;2022-09-09T04:55:52;6.13;;;2.67;;
46563;SDS011;32291;52.010;4.446;2022-09-09T04:57:17;5.88;;;3.10;;
46563;SDS011;32291;52.010;4.446;2022-09-09T04:58:23;5.60;;;3.15;;
46563;SDS011;32291;52.010;4.446;2022-09-09T04:59:28;6.97;;;2.92;;
46563;SDS011;32291;52.010;4.446;2022-09-09T05:00:32;8.93;;;2.95;;
46563;SDS011;32291;52.010;4.446;2022-09-09T05:01:40;7.38;;;3.25;;
46563;SDS011;32291;52.010;4.446;2022-09-09T05:02:46;5.80;;;2.92;;
46563;SDS011;32291;52.010;4.446;2022-09-09T05:03:50;6.25;;;3.00;;
46563;SDS011;32291;52.010;4.446;2022-09-09T05:04:54;6.13;;;3.15;;
46563;SDS011;32291;52.010;4.446;2022-09-09T05:06:05;8.77;;;3.38;;
46563;SDS011;32291;52.010;4.446;2022-09-09T05:07:23;4.30;;;3.03;;
46563;SDS011;32291;52.010;4.446;2022-09-09T05:08:28;5.47;;;3.25;;
46563;SDS011;32291;52.010;4.446;2022-09-09T05:09:31;7.45;;;3.72;;
46563;SDS011;32291;52.010;4.446;2022-09-09T05:10:35;8.35;;;3.42;;
46563;SDS011;32291;52.010;4.446;2022-09-09T05:11:45;8.30;;;3.17;;
46563;SDS011;32291;52.010;4.446;2022-09-09T05:12:53;8.02;;;3.72;;
46563;SDS011;32291;52.010;4.446;2022-09-09T05:13:57;9.35;;;3.60;;
46563;SDS011;32291;52.010;4.446;2022-09-09T05:15:01;8.13;;;3.70;;
46563;SDS011;32291;52.010;4.446;2022-09-09T05:16:04;6.88;;;3.53;;
46563;SDS011;32291;52.010;4.446;2022-09-09T05:17:08;5.18;;;3.35;;
46563;SDS011;32291;52.010;4.446;2022-09-09T05:18:21;7.05;;;3.78;;
46563;SDS011;32291;52.010;4.446;2022-09-09T05:19:24;6.68;;;3.28;;
46563;SDS011;32291;52.010;4.446;2022-09-09T05:20:29;7.45;;;3.50;;
46563;SDS011;32291;52.010;4.446;2022-09-09T05:21:32;7.10;;;3.20;;
46563;SDS011;32291;52.010;4.446;2022-09-09T05:22:36;9.43;;;3.60;;
46563;SDS011;32291;52.010;4.446;2022-09-09T05:23:44;4.50;;;2.95;;
46563;SDS011;32291;52.010;4.446;2022-09-09T05:24:49;9.43;;;3.45;;
46563;SDS011;32291;52.010;4.446;2022-09-09T05:25:59;7.10;;;3.78;;
46563;SDS011;32291;52.010;4.446;2022-09-09T05:27:13;8.35;;;3.45;;
46563;SDS011;32291;52.010;4.446;2022-09-09T05:28:29;10.18;;;3.75;;
46563;SDS011;32291;52.010;4.446;2022-09-09T05:29:35;8.95;;;3.67;;
46563;SDS011;32291;52.010;4.446;2022-09-09T05:30:55;6.18;;;3.05;;
46563;SDS011;32291;52.010;4.446;2022-09-09T05:32:06;8.68;;;3.50;;
46563;SDS011;32291;52.010;4.446;2022-09-09T05:33:15;5.43;;;3.00;;
46563;SDS011;32291;52.010;4.446;2022-09-09T05:34:18;7.15;;;3.10;;
46563;SDS011;32291;52.010;4.446;2022-09-09T05:35:22;7.70;;;3.70;;
46563;SDS011;32291;52.010;4.446;2022-09-09T05:36:28;11.85;;;5.13;;
46563;SDS011;32291;52.010;4.446;2022-09-09T05:37:30;8.00;;;3.17;;
46563;SDS011;32291;52.010;4.446;2022-09-09T05:38:40;7.30;;;3.45;;
46563;SDS011;32291;52.010;4.446;2022-09-09T05:39:47;8.18;;;3.45;;
46563;SDS011;32291;52.010;4.446;2022-09-09T05:40:51;7.80;;;3.60;;
46563;SDS011;32291;52.010;4.446;2022-09-09T05:41:56;9.48;;;3.55;;
46563;SDS011;32291;52.010;4.446;2022-09-09T05:42:59;9.75;;;3.40;;
46563;SDS011;32291;52.010;4.446;2022-09-09T05:44:08;5.80;;;2.90;;
46563;SDS011;32291;52.010;4.446;2022-09-09T05:45:18;6.85;;;3.15;;
46563;SDS011;32291;52.010;4.446;2022-09-09T05:46:24;7.47;;;3.30;;
46563;SDS011;32291;52.010;4.446;2022-09-09T05:47:31;8.82;;;3.10;;
46563;SDS011;32291;52.010;4.446;2022-09-09T05:48:35;7.22;;;3.17;;
46563;SDS011;32291;52.010;4.446;2022-09-09T05:49:41;6.32;;;3.17;;
46563;SDS011;32291;52.010;4.446;2022-09-09T05:50:52;9.27;;;3.40;;
46563;SDS011;32291;52.010;4.446;2022-09-09T05:51:58;7.82;;;3.28;;
46563;SDS011;32291;52.010;4.446;2022-09-09T05:53:02;6.78;;;3.15;;
46563;SDS011;32291;52.010;4.446;2022-09-09T05:54:07;8.82;;;3.47;;
46563;SDS011;32291;52.010;4.446;2022-09-09T05:55:14;3.53;;;2.55;;
46563;SDS011;32291;52.010;4.446;2022-09-09T05:56:18;5.93;;;3.15;;
46563;SDS011;32291;52.010;4.446;2022-09-09T05:57:28;8.63;;;3.00;;
46563;SDS011;32291;52.010;4.446;2022-09-09T05:58:46;7.50;;;3.50;;
46563;SDS011;32291;52.010;4.446;2022-09-09T05:59:50;9.75;;;3.42;;
46563;SDS011;32291;52.010;4.446;2022-09-09T06:01:13;9.10;;;3.28;;
46563;SDS011;32291;52.010;4.446;2022-09-09T06:02:24;10.23;;;3.13;;
46563;SDS011;32291;52.010;4.446;2022-09-09T06:03:34;9.45;;;3.60;;
46563;SDS011;32291;52.010;4.446;2022-09-09T06:04:43;8.15;;;2.85;;
46563;SDS011;32291;52.010;4.446;2022-09-09T06:05:48;6.75;;;2.60;;
46563;SDS011;32291;52.010;4.446;2022-09-09T06:07:07;5.68;;;2.67;;
46563;SDS011;32291;52.010;4.446;2022-09-09T06:08:13;10.68;;;3.72;;
46563;SDS011;32291;52.010;4.446;2022-09-09T06:09:25;9.40;;;3.75;;
46563;SDS011;32291;52.010;4.446;2022-09-09T06:10:30;6.57;;;2.85;;
46563;SDS011;32291;52.010;4.446;2022-09-09T06:11:38;8.73;;;3.35;;
46563;SDS011;32291;52.010;4.446;2022-09-09T06:12:45;5.53;;;2.53;;
46563;SDS011;32291;52.010;4.446;2022-09-09T06:13:48;6.95;;;2.70;;
46563;SDS011;32291;52.010;4.446;2022-09-09T06:14:55;8.68;;;3.10;;
46563;SDS011;32291;52.010;4.446;2022-09-09T06:15:59;6.90;;;2.90;;
46563;SDS011;32291;52.010;4.446;2022-09-09T06:17:02;6.88;;;2.85;;
46563;SDS011;32291;52.010;4.446;2022-09-09T06:18:16;8.40;;;3.20;;
46563;SDS011;32291;52.010;4.446;2022-09-09T06:19:26;6.85;;;2.60;;
46563;SDS011;32291;52.010;4.446;2022-09-09T06:20:30;6.32;;;2.80;;
46563;SDS011;32291;52.010;4.446;2022-09-09T06:21:40;7.63;;;2.80;;
46563;SDS011;32291;52.010;4.446;2022-09-09T06:23:22;6.88;;;3.20;;
46563;SDS011;32291;52.010;4.446;2022-09-09T06:24:26;9.88;;;3.78;;
46563;SDS011;32291;52.010;4.446;2022-09-09T06:25:32;10.38;;;3.00;;
46563;SDS011;32291;52.010;4.446;2022-09-09T06:26:36;7.35;;;3.17;;
46563;SDS011;32291;52.010;4.446;2022-09-09T06:27:48;9.52;;;3.08;;
46563;SDS011;32291;52.010;4.446;2022-09-09T06:28:52;5.13;;;3.35;;
46563;SDS011;32291;52.010;4.446;2022-09-09T06:29:58;6.85;;;2.90;;
46563;SDS011;32291;52.010;4.446;2022-09-09T06:31:02;6.07;;;2.70;;
46563;SDS011;32291;52.010;4.446;2022-09-09T06:32:09;9.70;;;2.92;;
46563;SDS011;32291;52.010;4.446;2022-09-09T06:33:13;6.45;;;2.58;;
46563;SDS011;32291;52.010;4.446;2022-09-09T06:34:17;6.82;;;2.95;;
46563;SDS011;32291;52.010;4.446;2022-09-09T06:35:19;6.53;;;3.05;;
46563;SDS011;32291;52.010;4.446;2022-09-09T06:36:26;6.95;;;3.30;;
46563;SDS011;32291;52.010;4.446;2022-09-09T06:37:35;8.00;;;2.88;;
46563;SDS011;32291;52.010;4.446;2022-09-09T06:38:40;8.63;;;3.35;;
46563;SDS011;32291;52.010;4.446;2022-09-09T06:39:48;11.48;;;3.15;;
46563;SDS011;32291;52.010;4.446;2022-09-09T06:40:56;5.93;;;3.42;;
46563;SDS011;32291;52.010;4.446;2022-09-09T06:42:03;8.05;;;3.35;;
46563;SDS011;32291;52.010;4.446;2022-09-09T06:43:06;8.05;;;3.25;;
46563;SDS011;32291;52.010;4.446;2022-09-09T06:44:14;7.30;;;3.13;;
46563;SDS011;32291;52.010;4.446;2022-09-09T06:45:18;8.60;;;3.25;;
46563;SDS011;32291;52.010;4.446;2022-09-09T06:46:21;7.80;;;3.15;;
46563;SDS011;32291;52.010;4.446;2022-09-09T06:47:29;6.30;;;3.42;;
46563;SDS011;32291;52.010;4.446;2022-09-09T06:48:35;9.07;;;3.40;;
46563;SDS011;32291;52.010;4.446;2022-09-09T06:49:45;8.75;;;3.55;;
46563;SDS011;32291;52.010;4.446;2022-09-09T06:51:14;7.13;;;3.85;;
46563;SDS011;32291;52.010;4.446;2022-09-09T06:52:37;7.03;;;3.58;;
46563;SDS011;32291;52.010;4.446;2022-09-09T06:53:44;10.20;;;3.65;;
46563;SDS011;32291;52.010;4.446;2022-09-09T06:54:51;8.13;;;3.40;;
46563;SDS011;32291;52.010;4.446;2022-09-09T06:57:51;6.45;;;4.38;;
46563;SDS011;32291;52.010;4.446;2022-09-09T06:58:54;9.00;;;3.63;;
46563;SDS011;32291;52.010;4.446;2022-09-09T07:00:07;7.82;;;3.72;;
46563;SDS011;32291;52.010;4.446;2022-09-09T07:01:14;5.28;;;3.33;;
46563;SDS011;32291;52.010;4.446;2022-09-09T07:02:36;8.77;;;3.78;;
46563;SDS011;32291;52.010;4.446;2022-09-09T07:03:48;8.55;;;3.58;;
46563;SDS011;32291;52.010;4.446;2022-09-09T07:04:59;7.47;;;3.75;;
46563;SDS011;32291;52.010;4.446;2022-09-09T07:06:02;7.32;;;3.60;;
46563;SDS011;32291;52.010;4.446;2022-09-09T07:07:08;7.72;;;4.03;;
46563;SDS011;32291;52.010;4.446;2022-09-09T07:08:52;7.85;;;3.70;;
46563;SDS011;32291;52.010;4.446;2022-09-09T07:10:28;8.07;;;3.70;;
46563;SDS011;32291;52.010;4.446;2022-09-09T07:11:56;9.30;;;4.07;;
46563;SDS011;32291;52.010;4.446;2022-09-09T07:14:45;11.25;;;3.90;;
46563;SDS011;32291;52.010;4.446;2022-09-09T07:15:50;10.27;;;4.72;;
46563;SDS011;32291;52.010;4.446;2022-09-09T07:16:54;8.75;;;3.53;;
46563;SDS011;32291;52.010;4.446;2022-09-09T07:18:04;8.07;;;3.80;;
46563;SDS011;32291;52.010;4.446;2022-09-09T07:19:07;8.63;;;3.80;;
46563;SDS011;32291;52.010;4.446;2022-09-09T07:20:21;6.45;;;3.58;;
46563;SDS011;32291;52.010;4.446;2022-09-09T07:21:28;7.65;;;3.58;;
46563;SDS011;32291;52.010;4.446;2022-09-09T07:23:42;10.68;;;4.25;;
46563;SDS011;32291;52.010;4.446;2022-09-09T07:24:44;6.85;;;3.47;;
46563;SDS011;32291;52.010;4.446;2022-09-09T07:25:50;6.55;;;3.58;;
46563;SDS011;32291;52.010;4.446;2022-09-09T07:26:56;9.93;;;4.30;;
46563;SDS011;32291;52.010;4.446;2022-09-09T07:28:07;9.73;;;3.42;;
46563;SDS011;32291;52.010;4.446;2022-09-09T07:29:16;13.05;;;3.63;;
46563;SDS011;32291;52.010;4.446;2022-09-09T07:30:25;7.03;;;3.20;;
46563;SDS011;32291;52.010;4.446;2022-09-09T07:31:33;6.63;;;3.70;;
46563;SDS011;32291;52.010;4.446;2022-09-09T07:32:39;6.68;;;4.05;;
46563;SDS011;32291;52.010;4.446;2022-09-09T07:33:44;8.30;;;4.22;;
46563;SDS011;32291;52.010;4.446;2022-09-09T07:34:53;5.68;;;3.50;;
46563;SDS011;32291;52.010;4.446;2022-09-09T07:36:06;8.55;;;3.85;;
46563;SDS011;32291;52.010;4.446;2022-09-09T07:37:25;8.63;;;4.10;;
46563;SDS011;32291;52.010;4.446;2022-09-09T07:38:37;7.43;;;4.22;;
46563;SDS011;32291;52.010;4.446;2022-09-09T07:39:56;8.00;;;4.60;;
46563;SDS011;32291;52.010;4.446;2022-09-09T07:41:10;10.00;;;4.10;;
46563;SDS011;32291;52.010;4.446;2022-09-09T07:42:24;9.73;;;4.22;;
46563;SDS011;32291;52.010;4.446;2022-09-09T07:43:30;7.22;;;4.15;;
46563;SDS011;32291;52.010;4.446;2022-09-09T07:44:32;7.63;;;4.18;;
46563;SDS011;32291;52.010;4.446;2022-09-09T07:45:37;7.93;;;3.80;;
46563;SDS011;32291;52.010;4.446;2022-09-09T07:46:42;9.23;;;4.05;;
46563;SDS011;32291;52.010;4.446;2022-09-09T07:47:49;9.63;;;4.30;;
46563;SDS011;32291;52.010;4.446;2022-09-09T07:48:58;11.38;;;4.35;;
46563;SDS011;32291;52.010;4.446;2022-09-09T07:50:01;8.80;;;3.97;;